Time;durP1;ratioP1;P1;durP2;ratioP2;P2;SDS_P1;SDS_P2;PMS_P1;PMS_P2;Temp;Humidity;BMP_temperature;BMP_pressure;BME280_temperature;BME280_humidity;BME280_pressure;Samples;Min_cycle;Max_cycle;Signal;HPM_P1;HPM_P2
2023/02/28 00:01:15;;;;;;;;;;;;;;;-3.86;100.00;96121.88;10398869;28;2041;-65
2023/02/28 00:06:17;;;;;;;;;;;;;;;-3.86;100.00;96115.78;10399702;28;2184;-66
2023/02/28 00:11:20;;;;;;;;;;;;;;;-3.86;100.00;96113.16;10402164;28;2143;-66
2023/02/28 00:16:22;;;;;;;;;;;;;;;-3.88;100.00;96109.88;10397523;28;2178;-66
2023/02/28 00:21:31;;;;;;;;;;;;;;;-4.01;100.00;96102.59;10394172;28;2103;-67
2023/02/28 00:26:35;;;;;;;;;;;;;;;-4.05;100.00;96103.13;10396193;28;2065;-69
2023/02/28 00:31:39;;;;;;;;;;;;;;;-4.02;100.00;96097.50;10399482;28;1956;-69
2023/02/28 00:36:45;;;;;;;;;;;;;;;-4.05;100.00;96093.44;10396954;28;1907;-68
2023/02/28 00:41:48;;;;;;;;;;;;;;;-4.04;100.00;96094.25;10403896;28;1982;-67
2023/02/28 00:46:53;;;;;;;;;;;;;;;-4.15;100.00;96098.91;10396378;28;1968;-68
2023/02/28 00:51:57;;;;;;;;;;;;;;;-4.14;100.00;96095.28;10397317;28;2024;-65
2023/02/28 00:56:59;;;;;;;;;;;;;;;-4.25;100.00;96092.28;10392764;28;1971;-66
2023/02/28 01:02:02;;;;;;;;;;;;;;;-4.30;100.00;96105.09;10405700;28;1986;-68
2023/02/28 01:07:04;;;;;;;;;;;;;;;-4.30;100.00;96105.91;10399559;28;2002;-77
2023/02/28 01:12:07;;;;;;;;;;;;;;;-4.31;100.00;96098.22;10400194;28;1978;-71
2023/02/28 01:17:10;;;;;;;;;;;;;;;-4.36;100.00;96094.28;10392959;28;1999;-66
2023/02/28 01:22:16;;;;;;;;;;;;;;;-4.39;100.00;96084.16;10425664;28;2153;-66
2023/02/28 01:27:20;;;;;;;;;;;;;;;-4.42;100.00;96089.72;10394959;28;2058;-65
2023/02/28 01:32:24;;;;;;;;;;;;;;;-4.48;100.00;96085.16;10393772;28;1922;-65
2023/02/28 01:37:27;;;;;;;;;;;;;;;-4.54;100.00;96077.97;10397665;28;2075;-66
2023/02/28 01:42:30;;;;;;;;;;;;;;;-4.52;100.00;96070.75;10390326;28;2131;-65
2023/02/28 01:47:32;;;;;;;;;;;;;;;-4.55;100.00;96073.72;10397733;28;1987;-65
2023/02/28 01:52:35;;;;;;;;;;;;;;;-4.60;100.00;96077.84;10388417;28;1969;-66
2023/02/28 01:57:38;;;;;;;;;;;;;;;-4.64;100.00;96069.53;10398155;28;2053;-65
2023/02/28 02:02:41;;;;;;;;;;;;;;;-4.68;100.00;96073.47;10393716;28;1974;-65
2023/02/28 02:07:44;;;;;;;;;;;;;;;-4.68;100.00;96062.97;10394597;28;2093;-66
2023/02/28 02:12:47;;;;;;;;;;;;;;;-4.63;100.00;96064.09;10390831;28;1990;-69
2023/02/28 02:17:52;;;;;;;;;;;;;;;-4.71;100.00;96068.56;10395542;28;2045;-68
2023/02/28 02:22:55;;;;;;;;;;;;;;;-4.71;100.00;96068.56;10393083;28;1994;-66
2023/02/28 02:27:58;;;;;;;;;;;;;;;-4.72;100.00;96061.69;10395176;28;1971;-68
2023/02/28 02:33:03;;;;;;;;;;;;;;;-4.74;100.00;96061.84;10390643;28;1961;-65
2023/02/28 02:38:06;;;;;;;;;;;;;;;-4.71;100.00;96060.69;10393341;28;2122;-66
2023/02/28 02:43:08;;;;;;;;;;;;;;;-4.74;100.00;96059.22;10389201;28;2077;-66
2023/02/28 02:48:12;;;;;;;;;;;;;;;-4.74;100.00;96050.56;10391239;28;2091;-68
2023/02/28 02:53:18;;;;;;;;;;;;;;;-4.77;100.00;96051.72;10389198;28;1994;-67
2023/02/28 02:58:21;;;;;;;;;;;;;;;-4.76;100.00;96057.78;10400327;28;1982;-71
2023/02/28 03:03:28;;;;;;;;;;;;;;;-4.75;100.00;96054.16;10389216;28;1982;-66
2023/02/28 03:08:32;;;;;;;;;;;;;;;-4.76;100.00;96044.66;10398648;28;1953;-65
2023/02/28 03:13:34;;;;;;;;;;;;;;;-4.77;100.00;96050.88;10401629;28;2020;-65
2023/02/28 03:18:47;;;;;;;;;;;;;;;-4.78;100.00;96049.25;10391255;28;2005;-67
2023/02/28 03:23:50;;;;;;;;;;;;;;;-4.77;100.00;96051.72;10402687;28;2092;-66
2023/02/28 03:28:56;;;;;;;;;;;;;;;-4.74;100.00;96055.78;10385504;28;1974;-65
2023/02/28 03:33:59;;;;;;;;;;;;;;;-4.67;100.00;96059.38;10399267;28;2034;-66
2023/02/28 03:39:03;;;;;;;;;;;;;;;-4.57;100.00;96065.22;10393154;28;2054;-66
2023/02/28 03:44:06;;;;;;;;;;;;;;;-4.49;100.00;96054.69;10398107;28;2060;-64
2023/02/28 03:49:09;;;;;;;;;;;;;;;-4.49;100.00;96059.91;10398644;28;2017;-68
2023/02/28 03:54:12;;;;;;;;;;;;;;;-4.57;100.00;96053.91;10393038;28;1947;-65
2023/02/28 03:59:15;;;;;;;;;;;;;;;-4.66;100.00;96061.00;10394783;28;1955;-66
2023/02/28 04:04:18;;;;;;;;;;;;;;;-4.64;100.00;96061.66;10396649;28;2535;-66
2023/02/28 04:09:21;;;;;;;;;;;;;;;-4.64;100.00;96077.41;10391340;28;2053;-66
2023/02/28 04:14:23;;;;;;;;;;;;;;;-4.63;100.00;96085.09;10397333;28;2069;-66
2023/02/28 04:19:26;;;;;;;;;;;;;;;-4.63;100.00;96076.41;10390278;28;1998;-65
2023/02/28 04:24:29;;;;;;;;;;;;;;;-4.53;100.00;96084.03;10395455;28;2067;-71
2023/02/28 04:29:34;;;;;;;;;;;;;;;-4.44;100.00;96089.09;10426072;28;2003;-66
2023/02/28 04:34:36;;;;;;;;;;;;;;;-4.39;100.00;96096.44;10393431;28;1974;-66
2023/02/28 04:39:38;;;;;;;;;;;;;;;-4.29;100.00;96097.03;10400458;28;2156;-65
2023/02/28 04:44:41;;;;;;;;;;;;;;;-4.22;100.00;96091.91;10394872;28;2173;-64
2023/02/28 04:49:43;;;;;;;;;;;;;;;-4.14;100.00;96086.59;10398055;28;2198;-67
2023/02/28 04:54:50;;;;;;;;;;;;;;;-4.08;100.00;96091.16;10394890;28;2074;-66
2023/02/28 04:59:54;;;;;;;;;;;;;;;-4.03;100.00;96094.06;10424958;28;2085;-65
2023/02/28 05:04:57;;;;;;;;;;;;;;;-4.01;100.00;96099.97;10398474;28;1955;-70
2023/02/28 05:10:01;;;;;;;;;;;;;;;-3.91;100.00;96102.38;10401527;28;2002;-76
2023/02/28 05:15:14;;;;;;;;;;;;;;;-3.82;100.00;96110.03;10398155;28;2009;-64
2023/02/28 05:20:18;;;;;;;;;;;;;;;-3.79;100.00;96108.03;10393968;28;1982;-66
2023/02/28 05:25:22;;;;;;;;;;;;;;;-3.71;100.00;96110.59;10396187;28;1989;-65
2023/02/28 05:30:26;;;;;;;;;;;;;;;-3.78;100.00;96104.41;10398799;28;2111;-65
2023/02/28 05:35:33;;;;;;;;;;;;;;;-3.76;100.00;96115.53;10401609;28;2085;-66
2023/02/28 05:40:36;;;;;;;;;;;;;;;-3.79;100.00;96108.03;10408205;28;1894;-70
2023/02/28 05:45:39;;;;;;;;;;;;;;;-3.75;100.00;96109.28;10404524;28;1508;-67
2023/02/28 05:50:44;;;;;;;;;;;;;;;-3.59;100.00;96110.00;10405286;28;1974;-65
2023/02/28 05:55:47;;;;;;;;;;;;;;;-3.61;100.00;96111.16;10387132;28;2266;-67
2023/02/28 06:00:50;;;;;;;;;;;;;;;-3.63;100.00;96111.31;10395686;28;1980;-65
2023/02/28 06:05:53;;;;;;;;;;;;;;;-3.61;100.00;96121.69;10397742;28;1991;-66
2023/02/28 06:10:58;;;;;;;;;;;;;;;-3.60;100.00;96124.13;10399678;28;2131;-65
2023/02/28 06:16:05;;;;;;;;;;;;;;;-3.63;100.00;96123.66;10398455;28;2187;-64
2023/02/28 06:21:08;;;;;;;;;;;;;;;-3.73;100.00;96128.34;10397451;28;2067;-68
2023/02/28 06:26:12;;;;;;;;;;;;;;;-3.62;100.00;96136.63;10398110;28;2116;-66
2023/02/28 06:31:15;;;;;;;;;;;;;;;-3.62;100.00;96141.06;10392717;28;2066;-65
2023/02/28 06:36:18;;;;;;;;;;;;;;;-3.63;100.00;96142.84;10397096;28;2021;-65
2023/02/28 06:41:21;;;;;;;;;;;;;;;-3.47;100.00;96144.56;10403226;28;1939;-71
2023/02/28 06:46:24;;;;;;;;;;;;;;;-3.43;100.00;96150.28;10400488;28;2143;-64
2023/02/28 06:51:26;;;;;;;;;;;;;;;-3.36;100.00;96151.22;10394766;28;2053;-65
2023/02/28 06:56:30;;;;;;;;;;;;;;;-3.34;100.00;96154.47;10398374;28;1963;-65
2023/02/28 07:01:33;;;;;;;;;;;;;;;-3.35;100.00;96164.16;10395819;28;2077;-65
2023/02/28 07:06:35;;;;;;;;;;;;;;;-3.27;100.00;96176.41;10394016;28;2050;-67
2023/02/28 07:11:38;;;;;;;;;;;;;;;-3.31;100.00;96181.22;10399609;28;1978;-66
2023/02/28 07:16:40;;;;;;;;;;;;;;;-3.13;100.00;96182.69;10397083;28;1971;-69
2023/02/28 07:21:44;;;;;;;;;;;;;;;-3.40;100.00;96182.28;10400226;28;1967;-77
2023/02/28 07:26:46;;;;;;;;;;;;;;;-3.35;100.00;96179.94;10398923;28;3346;-70
2023/02/28 07:31:50;;;;;;;;;;;;;;;-3.11;100.00;96178.09;10399589;28;2044;-69
2023/02/28 07:36:53;;;;;;;;;;;;;;;-2.99;100.00;96176.63;10404159;28;2034;-70
2023/02/28 07:41:56;;;;;;;;;;;;;;;-3.00;100.00;96180.28;10404311;28;2000;-72
2023/02/28 07:46:59;;;;;;;;;;;;;;;-2.99;100.00;96179.28;10409631;28;2007;-72
2023/02/28 07:52:01;;;;;;;;;;;;;;;-3.01;100.00;96182.09;10407925;28;2002;-79
2023/02/28 07:57:04;;;;;;;;;;;;;;;-2.74;100.00;96171.94;10407197;28;1992;-73
2023/02/28 08:02:06;;;;;;;;;;;;;;;-2.76;100.00;96180.03;10403575;28;2127;-69
2023/02/28 08:07:12;;;;;;;;;;;;;;;-2.91;100.00;96183.66;10405761;28;1942;-72
2023/02/28 08:12:15;;;;;;;;;;;;;;;-3.07;100.00;96189.88;10403094;28;2187;-71
2023/02/28 08:17:17;;;;;;;;;;;;;;;-3.00;100.00;96193.44;10390729;28;1963;-71
2023/02/28 08:22:20;;;;;;;;;;;;;;;-2.87;100.00;96198.88;10395184;28;2045;-69
2023/02/28 08:27:22;;;;;;;;;;;;;;;-2.90;100.00;96206.34;10396847;28;2134;-70
2023/02/28 08:32:26;;;;;;;;;;;;;;;-2.86;100.00;96200.53;10398094;28;2032;-70
2023/02/28 08:37:31;;;;;;;;;;;;;;;-2.55;100.00;96208.25;10391455;28;1970;-70
2023/02/28 08:42:34;;;;;;;;;;;;;;;-2.64;100.00;96211.19;10396442;28;2417;-71
2023/02/28 08:47:37;;;;;;;;;;;;;;;-2.62;100.00;96223.16;10391339;28;2183;-69
2023/02/28 08:52:40;;;;;;;;;;;;;;;-2.31;100.00;96224.78;10400069;28;1963;-71
2023/02/28 08:57:43;;;;;;;;;;;;;;;-2.44;100.00;96217.53;10392727;28;2150;-70
2023/02/28 09:02:45;;;;;;;;;;;;;;;-1.99;100.00;96223.59;10391694;28;1958;-71
2023/02/28 09:07:48;;;;;;;;;;;;;;;-1.94;100.00;96208.84;10425577;28;2182;-70
2023/02/28 09:12:50;;;;;;;;;;;;;;;-2.01;100.00;96220.31;10394555;28;2046;-74
2023/02/28 09:17:54;;;;;;;;;;;;;;;-2.12;100.00;96223.41;10392738;28;1965;-75
2023/02/28 09:22:56;;;;;;;;;;;;;;;-1.97;100.00;96232.13;10396448;28;2009;-68
2023/02/28 09:27:59;;;;;;;;;;;;;;;-1.92;100.00;96229.75;10392453;28;1981;-68
2023/02/28 09:33:02;;;;;;;;;;;;;;;-1.56;100.00;96234.22;10392445;28;1997;-71
2023/02/28 09:38:07;;;;;;;;;;;;;;;-1.39;100.00;96241.72;10392189;28;2060;-72
2023/02/28 09:43:09;;;;;;;;;;;;;;;-1.35;100.00;96257.97;10395761;28;1972;-71
2023/02/28 09:48:13;;;;;;;;;;;;;;;-1.73;100.00;96254.69;10391361;28;2028;-69
2023/02/28 09:53:15;;;;;;;;;;;;;;;-1.37;100.00;96260.78;10395348;28;1953;-72
2023/02/28 09:58:18;;;;;;;;;;;;;;;-1.46;100.00;96261.13;10422388;28;1961;-67
2023/02/28 10:03:20;;;;;;;;;;;;;;;-1.63;100.00;96256.06;10392353;28;1969;-66
2023/02/28 10:08:25;;;;;;;;;;;;;;;-1.31;100.00;96259.22;10396701;28;1974;-68
2023/02/28 10:13:27;;;;;;;;;;;;;;;-1.03;100.00;96258.47;10404160;28;2126;-67
2023/02/28 10:18:31;;;;;;;;;;;;;;;-0.88;100.00;96261.88;10385920;28;2018;-67
2023/02/28 10:23:33;;;;;;;;;;;;;;;-0.91;100.00;96272.81;10391505;28;1956;-70
2023/02/28 10:28:35;;;;;;;;;;;;;;;-1.11;100.00;96281.34;10382155;28;1997;-73
2023/02/28 10:33:38;;;;;;;;;;;;;;;-0.99;100.00;96268.47;10393351;28;2281;-70
2023/02/28 10:38:40;;;;;;;;;;;;;;;-0.99;100.00;96267.66;10390106;28;2152;-70
2023/02/28 10:43:44;;;;;;;;;;;;;;;-1.06;100.00;96282.63;10395584;28;2074;-69
2023/02/28 10:48:49;;;;;;;;;;;;;;;-1.28;100.00;96285.22;10394915;28;2067;-72
2023/02/28 10:53:51;;;;;;;;;;;;;;;-1.03;100.00;96277.75;10407242;28;2130;-73
2023/02/28 10:59:05;;;;;;;;;;;;;;;-0.90;100.00;96282.34;10405467;28;2200;-75
2023/02/28 11:04:07;;;;;;;;;;;;;;;-0.80;100.00;96287.31;10402019;28;2237;-74
2023/02/28 11:09:13;;;;;;;;;;;;;;;-0.80;100.00;96285.50;10408914;28;2023;-75
2023/02/28 11:14:15;;;;;;;;;;;;;;;-0.89;100.00;96286.63;10409608;28;2089;-73
2023/02/28 11:19:18;;;;;;;;;;;;;;;-0.72;100.00;96280.06;10404258;28;2093;-72
2023/02/28 11:24:23;;;;;;;;;;;;;;;-0.57;100.00;96278.19;10397660;28;2039;-72
2023/02/28 11:29:26;;;;;;;;;;;;;;;-0.10;100.00;96279.31;10397757;28;2136;-73
2023/02/28 11:34:28;;;;;;;;;;;;;;;-0.39;100.00;96274.22;10402023;28;2078;-74
2023/02/28 11:39:31;;;;;;;;;;;;;;;0.10;100.00;96263.56;10403992;28;2092;-74
2023/02/28 11:44:34;;;;;;;;;;;;;;;-0.07;100.00;96257.75;10406859;28;2199;-73
2023/02/28 11:49:38;;;;;;;;;;;;;;;-0.16;100.00;96258.13;10398584;28;2367;-74
2023/02/28 11:54:41;;;;;;;;;;;;;;;-0.01;100.00;96250.88;10400097;28;2110;-75
2023/02/28 11:59:53;;;;;;;;;;;;;;;0.24;100.00;96245.91;10393732;28;2137;-72
2023/02/28 12:05:08;;;;;;;;;;;;;;;0.53;100.00;96242.97;10393103;28;2052;-72
2023/02/28 12:10:11;;;;;;;;;;;;;;;0.58;100.00;96244.22;10396562;28;2081;-71
2023/02/28 12:15:14;;;;;;;;;;;;;;;0.98;100.00;96240.63;10402544;28;2202;-74
2023/02/28 12:20:17;;;;;;;;;;;;;;;1.03;100.00;96229.44;10390512;28;2095;-74
2023/02/28 12:25:20;;;;;;;;;;;;;;;0.61;100.00;96226.09;10400491;28;2173;-75
2023/02/28 12:30:23;;;;;;;;;;;;;;;0.42;100.00;96230.31;10398302;28;1995;-75
2023/02/28 12:35:27;;;;;;;;;;;;;;;0.66;100.00;96222.88;10402409;28;2182;-71
2023/02/28 12:40:30;;;;;;;;;;;;;;;1.20;100.00;96219.25;10403346;28;2042;-75
2023/02/28 12:45:33;;;;;;;;;;;;;;;1.21;100.00;96212.94;10404264;28;2035;-74
2023/02/28 12:50:36;;;;;;;;;;;;;;;1.11;100.00;96207.25;10399900;28;2193;-72
2023/02/28 12:55:39;;;;;;;;;;;;;;;1.24;100.00;96199.28;10399546;28;2128;-71
2023/02/28 13:00:41;;;;;;;;;;;;;;;1.33;100.00;96208.66;10402548;28;2051;-66
2023/02/28 13:05:44;;;;;;;;;;;;;;;1.05;100.00;96199.09;10396549;28;2133;-68
2023/02/28 13:10:53;;;;;;;;;;;;;;;1.44;100.00;96197.44;10399071;28;2037;-67
2023/02/28 13:15:56;;;;;;;;;;;;;;;1.95;100.00;96193.25;10396843;28;2046;-67
2023/02/28 13:20:59;;;;;;;;;;;;;;;1.80;100.00;96201.47;10397418;28;2077;-70
2023/02/28 13:26:02;;;;;;;;;;;;;;;1.44;100.00;96199.28;10396113;28;2378;-74
2023/02/28 13:31:05;;;;;;;;;;;;;;;1.99;100.00;96205.06;10390537;28;2054;-78
2023/02/28 13:36:09;;;;;;;;;;;;;;;1.92;100.00;96197.16;10399717;28;1983;-66
2023/02/28 13:41:11;;;;;;;;;;;;;;;1.57;100.00;96201.91;10391563;28;2062;-68
2023/02/28 13:46:13;;;;;;;;;;;;;;;1.81;100.00;96213.69;10390336;28;2216;-67
2023/02/28 13:51:16;;;;;;;;;;;;;;;1.53;100.00;96204.16;10404271;28;2047;-70
2023/02/28 13:56:19;;;;;;;;;;;;;;;1.76;100.00;96205.53;10400361;28;2222;-71
2023/02/28 14:01:22;;;;;;;;;;;;;;;1.87;100.00;96207.56;10396785;28;2081;-70
2023/02/28 14:06:34;;;;;;;;;;;;;;;1.63;100.00;96207.19;10397001;28;2105;-71
2023/02/28 14:11:37;;;;;;;;;;;;;;;1.55;100.00;96204.75;10406478;28;2065;-70
2023/02/28 14:16:39;;;;;;;;;;;;;;;1.55;100.00;96199.47;10400703;28;2117;-70
2023/02/28 14:21:42;;;;;;;;;;;;;;;1.67;100.00;96201.50;10398767;28;2049;-71
2023/02/28 14:26:45;;;;;;;;;;;;;;;1.59;100.00;96195.41;10399365;28;2152;-72
2023/02/28 14:31:50;;;;;;;;;;;;;;;1.33;100.00;96200.69;10393082;28;2103;-70
2023/02/28 14:36:52;;;;;;;;;;;;;;;1.46;100.00;96198.03;10394133;28;2074;-75
2023/02/28 14:41:55;;;;;;;;;;;;;;;1.50;100.00;96199.25;10396657;28;2043;-72
2023/02/28 14:46:58;;;;;;;;;;;;;;;1.53;100.00;96201.50;10403278;28;2095;-71
2023/02/28 14:52:01;;;;;;;;;;;;;;;1.78;100.00;96201.66;10397799;28;2142;-72
2023/02/28 14:57:11;;;;;;;;;;;;;;;1.74;100.00;96192.50;10405397;28;2151;-72
2023/02/28 15:02:14;;;;;;;;;;;;;;;1.46;100.00;96198.03;10396482;28;2156;-70
2023/02/28 15:07:17;;;;;;;;;;;;;;;1.30;100.00;96186.03;10396673;28;2308;-69
2023/02/28 15:12:19;;;;;;;;;;;;;;;1.41;100.00;96189.91;10409720;28;1800;-68
2023/02/28 15:17:22;;;;;;;;;;;;;;;1.34;100.00;96195.22;10398810;28;1935;-68
2023/02/28 15:22:25;;;;;;;;;;;;;;;1.29;100.00;96199.50;10399931;28;2060;-67
2023/02/28 15:27:27;;;;;;;;;;;;;;;1.32;100.00;96191.94;10420553;28;1961;-67
2023/02/28 15:32:29;;;;;;;;;;;;;;;1.37;100.00;96196.63;10407867;28;1776;-69
2023/02/28 15:37:33;;;;;;;;;;;;;;;1.38;100.00;96200.91;10396234;28;1989;-67
2023/02/28 15:42:46;;;;;;;;;;;;;;;1.44;100.00;96199.28;10400573;28;1991;-73
2023/02/28 15:47:48;;;;;;;;;;;;;;;1.38;100.00;96195.59;10392889;28;2128;-70
2023/02/28 15:52:51;;;;;;;;;;;;;;;1.40;100.00;96213.94;10401243;28;2066;-71
2023/02/28 15:57:53;;;;;;;;;;;;;;;1.41;100.00;96213.75;10396560;28;2038;-71
2023/02/28 16:02:56;;;;;;;;;;;;;;;1.33;100.00;96216.59;10394707;28;2288;-71
2023/02/28 16:07:59;;;;;;;;;;;;;;;1.37;100.00;96215.16;10402180;28;2061;-70
2023/02/28 16:13:01;;;;;;;;;;;;;;;1.17;100.00;96211.72;10400918;28;2074;-72
2023/02/28 16:18:03;;;;;;;;;;;;;;;1.04;100.00;96210.69;10400199;28;2075;-72
2023/02/28 16:23:07;;;;;;;;;;;;;;;0.91;100.00;96208.03;10403440;28;2029;-71
2023/02/28 16:28:10;;;;;;;;;;;;;;;0.84;100.00;96209.06;10400531;28;2011;-72
2023/02/28 16:33:13;;;;;;;;;;;;;;;0.82;100.00;96211.88;10400996;28;2099;-71
2023/02/28 16:38:16;;;;;;;;;;;;;;;0.77;100.00;96220.44;10397908;28;2217;-70
2023/02/28 16:43:20;;;;;;;;;;;;;;;0.59;100.00;96224.69;10403647;28;2265;-70
2023/02/28 16:48:23;;;;;;;;;;;;;;;0.59;100.00;96225.50;10397828;28;2081;-73
2023/02/28 16:53:27;;;;;;;;;;;;;;;0.49;100.00;96231.16;10400198;28;1991;-70
2023/02/28 16:58:30;;;;;;;;;;;;;;;0.53;100.00;96226.28;10394612;28;1961;-72
2023/02/28 17:03:33;;;;;;;;;;;;;;;0.42;100.00;96234.81;10392000;28;2017;-71
2023/02/28 17:08:36;;;;;;;;;;;;;;;0.31;100.00;96233.53;10393188;28;1962;-73
2023/02/28 17:13:38;;;;;;;;;;;;;;;0.17;100.00;96247.72;10392347;28;2385;-72
2023/02/28 17:18:41;;;;;;;;;;;;;;;0.05;100.00;96246.63;10397858;28;2067;-71
2023/02/28 17:23:44;;;;;;;;;;;;;;;-0.02;100.00;96259.81;10399209;28;2128;-71
2023/02/28 17:28:47;;;;;;;;;;;;;;;-0.03;100.00;96264.28;10395692;28;2184;-70
2023/02/28 17:33:49;;;;;;;;;;;;;;;0.32;100.00;96269.56;10400580;28;2051;-73
2023/02/28 17:38:54;;;;;;;;;;;;;;;0.45;100.00;96272.25;10398978;28;1956;-78
2023/02/28 17:43:58;;;;;;;;;;;;;;;0.57;100.00;96269.03;10401696;28;2039;-70
2023/02/28 17:49:03;;;;;;;;;;;;;;;0.57;100.00;96258.44;10398728;28;1969;-71
2023/02/28 17:54:06;;;;;;;;;;;;;;;0.54;100.00;96259.66;10396917;28;2009;-72
2023/02/28 17:59:10;;;;;;;;;;;;;;;0.62;100.00;96269.25;10399363;28;1955;-71
2023/02/28 18:04:12;;;;;;;;;;;;;;;0.67;100.00;96269.47;10395521;28;2081;-73
2023/02/28 18:09:15;;;;;;;;;;;;;;;0.68;100.00;96268.44;10402317;28;2135;-72
2023/02/28 18:14:17;;;;;;;;;;;;;;;0.73;100.00;96263.38;10394785;28;2230;-74
2023/02/28 18:19:19;;;;;;;;;;;;;;;0.72;100.00;96267.88;10401829;28;2150;-72
2023/02/28 18:24:23;;;;;;;;;;;;;;;0.73;100.00;96266.03;10393649;28;2045;-72
2023/02/28 18:29:27;;;;;;;;;;;;;;;0.70;100.00;96263.75;10394596;28;2068;-70
2023/02/28 18:34:30;;;;;;;;;;;;;;;0.75;100.00;96262.16;10394391;28;1982;-72
2023/02/28 18:39:32;;;;;;;;;;;;;;;0.71;100.00;96265.44;10399327;28;2067;-73
2023/02/28 18:44:34;;;;;;;;;;;;;;;0.70;100.00;96258.47;10395073;28;2135;-73
2023/02/28 18:49:37;;;;;;;;;;;;;;;0.62;100.00;96261.31;10392844;28;2123;-71
2023/02/28 18:54:39;;;;;;;;;;;;;;;0.60;100.00;96258.06;10390018;28;1989;-73
2023/02/28 18:59:42;;;;;;;;;;;;;;;0.67;100.00;96254.41;10377360;28;2030;-72
2023/02/28 19:04:45;;;;;;;;;;;;;;;0.70;100.00;96258.47;10390015;28;1972;-72
2023/02/28 19:09:47;;;;;;;;;;;;;;;0.62;100.00;96258.66;10390737;28;2121;-70
2023/02/28 19:14:50;;;;;;;;;;;;;;;0.67;100.00;96253.59;10402817;28;2062;-72
2023/02/28 19:19:52;;;;;;;;;;;;;;;0.61;100.00;96257.84;10406825;28;1993;-72
2023/02/28 19:24:55;;;;;;;;;;;;;;;0.56;100.00;96256.81;10405394;28;2062;-71
2023/02/28 19:29:58;;;;;;;;;;;;;;;0.49;100.00;96257.59;10400822;28;2054;-71
2023/02/28 19:35:01;;;;;;;;;;;;;;;0.46;100.00;96259.84;10396390;28;1914;-69
2023/02/28 19:40:04;;;;;;;;;;;;;;;0.44;100.00;96260.03;10390389;28;1974;-69
2023/02/28 19:45:08;;;;;;;;;;;;;;;0.30;100.00;96268.94;10400522;28;2010;-69
2023/02/28 19:50:12;;;;;;;;;;;;;;;0.34;100.00;96264.88;10400568;28;2060;-72
2023/02/28 19:55:14;;;;;;;;;;;;;;;0.32;100.00;96258.16;10398033;28;1995;-71
2023/02/28 20:00:17;;;;;;;;;;;;;;;0.25;100.00;96263.41;10399370;28;1950;-71
2023/02/28 20:05:30;;;;;;;;;;;;;;;0.26;100.00;96263.22;10403219;28;2058;-70
2023/02/28 20:10:32;;;;;;;;;;;;;;;0.26;100.00;96257.94;10402035;28;2086;-71
2023/02/28 20:15:40;;;;;;;;;;;;;;;0.30;100.00;96258.34;10400973;28;1986;-70
2023/02/28 20:20:44;;;;;;;;;;;;;;;0.32;100.00;96256.34;10395038;28;2106;-70
2023/02/28 20:25:52;;;;;;;;;;;;;;;0.33;100.00;96257.97;10401784;28;1980;-69
2023/02/28 20:30:55;;;;;;;;;;;;;;;0.31;100.00;96253.88;10425327;28;2035;-70
2023/02/28 20:35:58;;;;;;;;;;;;;;;0.30;100.00;96253.06;10392697;28;2014;-71
2023/02/28 20:41:01;;;;;;;;;;;;;;;0.32;100.00;96250.22;10398116;28;2165;-72
2023/02/28 20:46:03;;;;;;;;;;;;;;;0.26;100.00;96263.22;10395879;28;2007;-71
2023/02/28 20:51:06;;;;;;;;;;;;;;;0.19;100.00;96254.47;10411612;28;1972;-71
2023/02/28 20:56:08;;;;;;;;;;;;;;;0.19;100.00;96256.25;10387008;28;2008;-68
2023/02/28 21:01:14;;;;;;;;;;;;;;;0.20;100.00;96252.63;10395680;28;1977;-71
2023/02/28 21:06:17;;;;;;;;;;;;;;;0.18;100.00;96257.28;10397689;28;2085;-68
2023/02/28 21:11:20;;;;;;;;;;;;;;;0.21;100.00;96254.25;10392165;28;1978;-68
2023/02/28 21:16:23;;;;;;;;;;;;;;;0.22;100.00;96250.59;10400108;28;2088;-68
2023/02/28 21:21:26;;;;;;;;;;;;;;;0.19;100.00;96254.47;10395828;28;1974;-70
2023/02/28 21:26:29;;;;;;;;;;;;;;;0.24;100.00;96259.13;10401525;28;2100;-69
2023/02/28 21:31:34;;;;;;;;;;;;;;;0.09;100.00;96251.34;10430399;28;2066;-67
2023/02/28 21:36:36;;;;;;;;;;;;;;;0.07;100.00;96252.56;10402323;28;1902;-69
2023/02/28 21:41:38;;;;;;;;;;;;;;;0.13;100.00;96241.22;10400971;28;2038;-70
2023/02/28 21:46:41;;;;;;;;;;;;;;;0.08;100.00;96233.06;10400672;28;2038;-72
2023/02/28 21:51:44;;;;;;;;;;;;;;;0.09;100.00;96226.75;10396379;28;1933;-72
2023/02/28 21:56:46;;;;;;;;;;;;;;;0.09;100.00;96234.69;10400357;28;1981;-72
2023/02/28 22:01:49;;;;;;;;;;;;;;;0.09;100.00;96229.38;10389701;28;2094;-77
2023/02/28 22:06:52;;;;;;;;;;;;;;;0.13;100.00;96238.56;10396374;28;1980;-68
2023/02/28 22:11:56;;;;;;;;;;;;;;;-0.01;100.00;96237.66;10397663;28;2031;-67
2023/02/28 22:16:59;;;;;;;;;;;;;;;-0.07;100.00;96235.81;10394689;28;1966;-68
2023/02/28 22:22:02;;;;;;;;;;;;;;;-0.04;100.00;96230.97;10395926;28;2054;-68
2023/02/28 22:27:05;;;;;;;;;;;;;;;-0.02;100.00;96239.50;10396729;28;1989;-67
2023/02/28 22:32:09;;;;;;;;;;;;;;;-0.07;100.00;96241.91;10393377;28;2182;-68
2023/02/28 22:37:13;;;;;;;;;;;;;;;-0.14;100.00;96232.31;10393655;28;1955;-68
2023/02/28 22:42:15;;;;;;;;;;;;;;;-0.13;100.00;96241.88;10387689;28;2198;-68
2023/02/28 22:47:18;;;;;;;;;;;;;;;-0.08;100.00;96239.47;10400876;28;2038;-67
2023/02/28 22:52:21;;;;;;;;;;;;;;;-0.13;100.00;96240.03;10407283;28;1968;-67
2023/02/28 22:57:24;;;;;;;;;;;;;;;-0.15;100.00;96234.13;10402633;28;2087;-67
2023/02/28 23:02:27;;;;;;;;;;;;;;;-0.17;100.00;96233.53;10405930;28;2049;-68
2023/02/28 23:07:30;;;;;;;;;;;;;;;-0.17;100.00;96238.00;10423434;28;1977;-68
2023/02/28 23:12:33;;;;;;;;;;;;;;;-0.23;100.00;96236.94;10410376;28;2139;-68
2023/02/28 23:17:35;;;;;;;;;;;;;;;-0.17;100.00;96233.53;10414978;28;2152;-70
2023/02/28 23:22:39;;;;;;;;;;;;;;;-0.15;100.00;96226.22;10412258;28;2084;-69
2023/02/28 23:27:41;;;;;;;;;;;;;;;-0.16;100.00;96232.50;10414246;28;2017;-67
2023/02/28 23:32:44;;;;;;;;;;;;;;;-0.12;100.00;96246.97;10414188;28;2009;-69
2023/02/28 23:37:46;;;;;;;;;;;;;;;-0.16;100.00;96229.88;10405295;28;1989;-68
2023/02/28 23:42:49;;;;;;;;;;;;;;;-0.16;100.00;96224.59;10412099;28;1915;-68
2023/02/28 23:47:54;;;;;;;;;;;;;;;-0.25;100.00;96227.56;10409705;28;1958;-68
2023/02/28 23:52:56;;;;;;;;;;;;;;;-0.27;100.00;96225.13;10410419;28;2069;-67
2023/02/28 23:58:00;;;;;;;;;;;;;;;-0.23;100.00;96215.00;10389472;28;2052;-68
